sensor_id;sensor_type;location;lat;lon;timestamp;pressure;altitude;pressure_sealevel;temperature;humidity
36598;BME280;22607;49.550;11.940;2023-09-19T00:00:31;96402.59;;;16.47;100.00
36598;BME280;22607;49.550;11.940;2023-09-19T00:03:00;96403.19;;;16.49;100.00
36598;BME280;22607;49.550;11.940;2023-09-19T00:05:28;96395.69;;;16.46;100.00
36598;BME280;22607;49.550;11.940;2023-09-19T00:07:57;96388.16;;;16.43;100.00
36598;BME280;22607;49.550;11.940;2023-09-19T00:10:27;96406.09;;;16.41;100.00
36598;BME280;22607;49.550;11.940;2023-09-19T00:12:57;96399.72;;;16.49;100.00
36598;BME280;22607;49.550;11.940;2023-09-19T00:15:26;96403.03;;;16.44;100.00
36598;BME280;22607;49.550;11.940;2023-09-19T00:17:55;96404.72;;;16.38;100.00
36598;BME280;22607;49.550;11.940;2023-09-19T00:20:23;96407.97;;;16.40;100.00
36598;BME280;22607;49.550;11.940;2023-09-19T00:22:51;96399.94;;;16.29;100.00
36598;BME280;22607;49.550;11.940;2023-09-19T00:25:21;96409.34;;;16.24;100.00
36598;BME280;22607;49.550;11.940;2023-09-19T00:27:47;96402.72;;;16.34;100.00
36598;BME280;22607;49.550;11.940;2023-09-19T00:30:16;96402.03;;;16.20;100.00
36598;BME280;22607;49.550;11.940;2023-09-19T00:32:47;96393.94;;;16.14;100.00
36598;BME280;22607;49.550;11.940;2023-09-19T00:35:14;96407.16;;;16.40;100.00
36598;BME280;22607;49.550;11.940;2023-09-19T00:37:42;96399.81;;;16.42;100.00
36598;BME280;22607;49.550;11.940;2023-09-19T00:40:10;96395.28;;;16.43;100.00
36598;BME280;22607;49.550;11.940;2023-09-19T00:42:42;96414.31;;;16.39;100.00
36598;BME280;22607;49.550;11.940;2023-09-19T00:45:10;96408.34;;;16.44;100.00
36598;BME280;22607;49.550;11.940;2023-09-19T00:47:50;96408.63;;;16.36;100.00
36598;BME280;22607;49.550;11.940;2023-09-19T00:50:19;96417.31;;;16.43;100.00
36598;BME280;22607;49.550;11.940;2023-09-19T00:52:53;96412.91;;;16.37;100.00
36598;BME280;22607;49.550;11.940;2023-09-19T00:55:23;96414.66;;;16.43;100.00
36598;BME280;22607;49.550;11.940;2023-09-19T00:57:50;96415.69;;;16.42;100.00
36598;BME280;22607;49.550;11.940;2023-09-19T01:00:17;96410.69;;;16.34;100.00
36598;BME280;22607;49.550;11.940;2023-09-19T01:02:47;96419.72;;;16.26;100.00
36598;BME280;22607;49.550;11.940;2023-09-19T01:05:15;96423.72;;;16.35;100.00
36598;BME280;22607;49.550;11.940;2023-09-19T01:07:43;96419.06;;;16.31;100.00
36598;BME280;22607;49.550;11.940;2023-09-19T01:10:17;96420.47;;;16.33;100.00
36598;BME280;22607;49.550;11.940;2023-09-19T01:12:54;96419.53;;;16.27;100.00
36598;BME280;22607;49.550;11.940;2023-09-19T01:29:17;96419.09;;;16.05;100.00
36598;BME280;22607;49.550;11.940;2023-09-19T01:31:59;96439.94;;;16.20;100.00
36598;BME280;22607;49.550;11.940;2023-09-19T01:34:48;96450.59;;;16.13;100.00
36598;BME280;22607;49.550;11.940;2023-09-19T01:37:17;96443.63;;;16.19;100.00
36598;BME280;22607;49.550;11.940;2023-09-19T01:39:48;96447.22;;;16.06;100.00
36598;BME280;22607;49.550;11.940;2023-09-19T01:42:21;96443.31;;;16.09;100.00
36598;BME280;22607;49.550;11.940;2023-09-19T01:45:14;96439.69;;;16.03;100.00
36598;BME280;22607;49.550;11.940;2023-09-19T01:47:48;96449.47;;;16.03;100.00
36598;BME280;22607;49.550;11.940;2023-09-19T01:50:38;96441.25;;;16.11;100.00
36598;BME280;22607;49.550;11.940;2023-09-19T01:56:08;96431.69;;;16.10;100.00
36598;BME280;22607;49.550;11.940;2023-09-19T01:58:46;96440.56;;;15.97;100.00
36598;BME280;22607;49.550;11.940;2023-09-19T02:01:23;96443.06;;;15.85;100.00
36598;BME280;22607;49.550;11.940;2023-09-19T02:03:51;96437.53;;;15.86;100.00
36598;BME280;22607;49.550;11.940;2023-09-19T02:06:20;96436.50;;;15.87;100.00
36598;BME280;22607;49.550;11.940;2023-09-19T02:08:48;96450.56;;;15.88;100.00
36598;BME280;22607;49.550;11.940;2023-09-19T02:11:15;96449.44;;;15.77;100.00
36598;BME280;22607;49.550;11.940;2023-09-19T02:13:42;96450.09;;;15.72;100.00
36598;BME280;22607;49.550;11.940;2023-09-19T02:16:09;96452.91;;;15.78;100.00
36598;BME280;22607;49.550;11.940;2023-09-19T02:18:38;96450.19;;;15.84;100.00
36598;BME280;22607;49.550;11.940;2023-09-19T02:21:05;96455.72;;;15.83;100.00
36598;BME280;22607;49.550;11.940;2023-09-19T02:23:36;96449.22;;;15.79;100.00
36598;BME280;22607;49.550;11.940;2023-09-19T02:26:03;96461.22;;;15.81;100.00
36598;BME280;22607;49.550;11.940;2023-09-19T02:28:32;96458.78;;;15.80;100.00
36598;BME280;22607;49.550;11.940;2023-09-19T02:31:00;96459.81;;;15.79;100.00
36598;BME280;22607;49.550;11.940;2023-09-19T02:33:27;96451.69;;;15.73;100.00
36598;BME280;22607;49.550;11.940;2023-09-19T02:35:56;96469.38;;;15.80;100.00
36598;BME280;22607;49.550;11.940;2023-09-19T02:38:27;96465.72;;;15.81;100.00
36598;BME280;22607;49.550;11.940;2023-09-19T02:40:55;96457.63;;;15.69;100.00
36598;BME280;22607;49.550;11.940;2023-09-19T02:43:23;96468.38;;;15.81;100.00
36598;BME280;22607;49.550;11.940;2023-09-19T02:45:50;96473.22;;;15.84;100.00
36598;BME280;22607;49.550;11.940;2023-09-19T02:48:17;96473.59;;;15.87;100.00
36598;BME280;22607;49.550;11.940;2023-09-19T02:50:45;96475.69;;;15.79;100.00
36598;BME280;22607;49.550;11.940;2023-09-19T02:53:12;96459.22;;;15.77;100.00
36598;BME280;22607;49.550;11.940;2023-09-19T02:55:39;96467.16;;;15.77;100.00
36598;BME280;22607;49.550;11.940;2023-09-19T02:58:10;96470.34;;;15.85;100.00
36598;BME280;22607;49.550;11.940;2023-09-19T03:00:41;96473.38;;;15.89;100.00
36598;BME280;22607;49.550;11.940;2023-09-19T03:03:14;96470.78;;;15.82;100.00
36598;BME280;22607;49.550;11.940;2023-09-19T03:05:43;96478.47;;;15.91;100.00
36598;BME280;22607;49.550;11.940;2023-09-19T03:08:14;96474.38;;;15.95;100.00
36598;BME280;22607;49.550;11.940;2023-09-19T03:10:47;96472.13;;;15.92;100.00
36598;BME280;22607;49.550;11.940;2023-09-19T03:13:17;96472.19;;;15.85;100.00
36598;BME280;22607;49.550;11.940;2023-09-19T03:15:43;96477.09;;;15.81;100.00
36598;BME280;22607;49.550;11.940;2023-09-19T03:18:12;96474.03;;;15.84;100.00
36598;BME280;22607;49.550;11.940;2023-09-19T03:20:40;96474.50;;;15.74;100.00
36598;BME280;22607;49.550;11.940;2023-09-19T03:23:06;96483.75;;;15.91;100.00
36598;BME280;22607;49.550;11.940;2023-09-19T03:25:35;96476.63;;;15.98;100.00
36598;BME280;22607;49.550;11.940;2023-09-19T03:28:03;96488.47;;;15.95;100.00
36598;BME280;22607;49.550;11.940;2023-09-19T03:30:32;96484.59;;;15.91;100.00
36598;BME280;22607;49.550;11.940;2023-09-19T03:33:00;96494.34;;;15.97;100.00
36598;BME280;22607;49.550;11.940;2023-09-19T03:35:27;96489.41;;;16.01;100.00
36598;BME280;22607;49.550;11.940;2023-09-19T03:37:54;96482.50;;;15.93;100.00
36598;BME280;22607;49.550;11.940;2023-09-19T03:40:20;96486.19;;;15.92;100.00
36598;BME280;22607;49.550;11.940;2023-09-19T03:42:48;96491.50;;;15.92;100.00
36598;BME280;22607;49.550;11.940;2023-09-19T03:45:15;96494.78;;;15.87;100.00
36598;BME280;22607;49.550;11.940;2023-09-19T03:47:42;96492.31;;;15.93;100.00
36598;BME280;22607;49.550;11.940;2023-09-19T03:50:09;96494.97;;;15.93;100.00
36598;BME280;22607;49.550;11.940;2023-09-19T03:52:41;96500.41;;;16.05;100.00
36598;BME280;22607;49.550;11.940;2023-09-19T03:55:09;96485.59;;;15.97;100.00
36598;BME280;22607;49.550;11.940;2023-09-19T03:57:37;96504.94;;;15.97;100.00
36598;BME280;22607;49.550;11.940;2023-09-19T04:00:04;96495.16;;;15.91;100.00
36598;BME280;22607;49.550;11.940;2023-09-19T04:02:32;96498.59;;;15.98;100.00
36598;BME280;22607;49.550;11.940;2023-09-19T04:04:59;96499.00;;;16.02;100.00
36598;BME280;22607;49.550;11.940;2023-09-19T04:07:26;96508.50;;;16.10;100.00
36598;BME280;22607;49.550;11.940;2023-09-19T04:09:55;96504.47;;;16.07;100.00
36598;BME280;22607;49.550;11.940;2023-09-19T04:12:22;96514.22;;;16.07;100.00
36598;BME280;22607;49.550;11.940;2023-09-19T04:14:48;96509.19;;;15.98;100.00
36598;BME280;22607;49.550;11.940;2023-09-19T04:17:16;96506.94;;;16.02;100.00
36598;BME280;22607;49.550;11.940;2023-09-19T04:19:43;96506.59;;;15.85;100.00
36598;BME280;22607;49.550;11.940;2023-09-19T04:22:12;96522.88;;;15.95;100.00
36598;BME280;22607;49.550;11.940;2023-09-19T04:24:39;96520.13;;;16.09;100.00
36598;BME280;22607;49.550;11.940;2023-09-19T04:27:07;96515.84;;;16.08;100.00
36598;BME280;22607;49.550;11.940;2023-09-19T04:29:33;96523.03;;;16.00;100.00
36598;BME280;22607;49.550;11.940;2023-09-19T04:32:01;96524.03;;;16.06;100.00
36598;BME280;22607;49.550;11.940;2023-09-19T04:34:30;96516.88;;;16.07;100.00
36598;BME280;22607;49.550;11.940;2023-09-19T04:36:57;96517.09;;;16.05;100.00
36598;BME280;22607;49.550;11.940;2023-09-19T04:39:24;96530.13;;;16.07;100.00
36598;BME280;22607;49.550;11.940;2023-09-19T04:41:52;96530.13;;;16.07;100.00
36598;BME280;22607;49.550;11.940;2023-09-19T04:44:19;96522.88;;;15.95;100.00
36598;BME280;22607;49.550;11.940;2023-09-19T04:46:46;96528.72;;;16.04;100.00
36598;BME280;22607;49.550;11.940;2023-09-19T04:49:13;96539.09;;;16.06;100.00
36598;BME280;22607;49.550;11.940;2023-09-19T04:51:39;96534.63;;;16.06;100.00
36598;BME280;22607;49.550;11.940;2023-09-19T04:54:07;96538.91;;;16.07;100.00
36598;BME280;22607;49.550;11.940;2023-09-19T04:56:34;96528.56;;;15.99;100.00
36598;BME280;22607;49.550;11.940;2023-09-19T04:59:00;96548.41;;;16.15;100.00
36598;BME280;22607;49.550;11.940;2023-09-19T05:01:27;96526.50;;;16.01;100.00
36598;BME280;22607;49.550;11.940;2023-09-19T05:03:54;96539.94;;;16.06;100.00
36598;BME280;22607;49.550;11.940;2023-09-19T05:06:20;96548.16;;;15.84;100.00
36598;BME280;22607;49.550;11.940;2023-09-19T05:08:48;96546.06;;;15.93;100.00
36598;BME280;22607;49.550;11.940;2023-09-19T05:11:18;96541.63;;;15.94;100.00
36598;BME280;22607;49.550;11.940;2023-09-19T05:13:45;96540.03;;;15.86;100.00
36598;BME280;22607;49.550;11.940;2023-09-19T05:16:12;96547.72;;;15.87;100.00
36598;BME280;22607;49.550;11.940;2023-09-19T05:18:39;96537.75;;;15.96;100.00
36598;BME280;22607;49.550;11.940;2023-09-19T05:21:05;96548.72;;;15.93;100.00
36598;BME280;22607;49.550;11.940;2023-09-19T05:23:32;96550.06;;;16.09;100.00
36598;BME280;22607;49.550;11.940;2023-09-19T05:25:59;96538.34;;;15.92;100.00
36598;BME280;22607;49.550;11.940;2023-09-19T05:28:27;96549.75;;;15.92;100.00
36598;BME280;22607;49.550;11.940;2023-09-19T05:30:53;96556.84;;;15.98;100.00
36598;BME280;22607;49.550;11.940;2023-09-19T05:33:20;96554.56;;;16.09;100.00
36598;BME280;22607;49.550;11.940;2023-09-19T05:35:50;96565.34;;;16.14;100.00
36598;BME280;22607;49.550;11.940;2023-09-19T05:38:16;96558.75;;;16.23;100.00
36598;BME280;22607;49.550;11.940;2023-09-19T05:40:45;96563.94;;;16.37;100.00
36598;BME280;22607;49.550;11.940;2023-09-19T05:43:13;96562.59;;;16.27;100.00
36598;BME280;22607;49.550;11.940;2023-09-19T05:45:41;96575.03;;;16.27;100.00
36598;BME280;22607;49.550;11.940;2023-09-19T05:50:35;96576.47;;;16.23;100.00
36598;BME280;22607;49.550;11.940;2023-09-19T05:53:03;96573.56;;;16.31;100.00
36598;BME280;22607;49.550;11.940;2023-09-19T05:55:31;96571.78;;;16.50;100.00
36598;BME280;22607;49.550;11.940;2023-09-19T05:57:58;96570.59;;;16.46;100.00
36598;BME280;22607;49.550;11.940;2023-09-19T06:00:26;96570.09;;;16.82;100.00
36598;BME280;22607;49.550;11.940;2023-09-19T06:02:55;96574.88;;;16.73;100.00
36598;BME280;22607;49.550;11.940;2023-09-19T06:05:26;96573.78;;;16.99;100.00
36598;BME280;22607;49.550;11.940;2023-09-19T06:07:53;96576.34;;;16.87;100.00
36598;BME280;22607;49.550;11.940;2023-09-19T06:10:20;96548.81;;;16.88;100.00
36598;BME280;22607;49.550;11.940;2023-09-19T06:12:47;96565.13;;;17.11;100.00
36598;BME280;22607;49.550;11.940;2023-09-19T06:15:15;96579.28;;;17.23;100.00
36598;BME280;22607;49.550;11.940;2023-09-19T06:17:44;96575.78;;;17.60;100.00
36598;BME280;22607;49.550;11.940;2023-09-19T06:20:13;96570.19;;;17.50;100.00
36598;BME280;22607;49.550;11.940;2023-09-19T06:22:45;96573.56;;;18.73;100.00
36598;BME280;22607;49.550;11.940;2023-09-19T06:25:13;96579.16;;;18.17;100.00
36598;BME280;22607;49.550;11.940;2023-09-19T06:27:50;96578.88;;;19.21;100.00
36598;BME280;22607;49.550;11.940;2023-09-19T06:30:22;96582.03;;;19.06;100.00
36598;BME280;22607;49.550;11.940;2023-09-19T06:32:57;96587.06;;;19.43;100.00
36598;BME280;22607;49.550;11.940;2023-09-19T06:35:25;96597.50;;;18.73;100.00
36598;BME280;22607;49.550;11.940;2023-09-19T06:37:56;96592.94;;;18.07;100.00
36598;BME280;22607;49.550;11.940;2023-09-19T06:40:25;96599.78;;;18.03;100.00
36598;BME280;22607;49.550;11.940;2023-09-19T06:42:52;96608.34;;;17.86;100.00
36598;BME280;22607;49.550;11.940;2023-09-19T06:45:22;96612.94;;;17.79;100.00
36598;BME280;22607;49.550;11.940;2023-09-19T06:47:54;96611.13;;;17.42;100.00
36598;BME280;22607;49.550;11.940;2023-09-19T06:50:25;96617.19;;;17.30;100.00
36598;BME280;22607;49.550;11.940;2023-09-19T06:52:53;96614.75;;;17.29;100.00
36598;BME280;22607;49.550;11.940;2023-09-19T06:55:22;96629.13;;;17.21;100.00
36598;BME280;22607;49.550;11.940;2023-09-19T06:57:51;96616.00;;;17.26;100.00
36598;BME280;22607;49.550;11.940;2023-09-19T07:00:21;96626.75;;;17.13;100.00
36598;BME280;22607;49.550;11.940;2023-09-19T07:03:05;96628.25;;;17.27;100.00
36598;BME280;22607;49.550;11.940;2023-09-19T07:05:35;96628.53;;;17.38;100.00
36598;BME280;22607;49.550;11.940;2023-09-19T07:08:09;96632.97;;;17.44;100.00
36598;BME280;22607;49.550;11.940;2023-09-19T07:10:39;96639.97;;;17.38;100.00
36598;BME280;22607;49.550;11.940;2023-09-19T07:13:16;96635.25;;;17.59;100.00
36598;BME280;22607;49.550;11.940;2023-09-19T07:15:44;96639.91;;;17.45;100.00
36598;BME280;22607;49.550;11.940;2023-09-19T07:18:14;96652.19;;;18.69;100.00
36598;BME280;22607;49.550;11.940;2023-09-19T07:20:44;96653.50;;;20.03;100.00
36598;BME280;22607;49.550;11.940;2023-09-19T07:23:18;96651.47;;;21.03;100.00
36598;BME280;22607;49.550;11.940;2023-09-19T07:25:45;96649.47;;;20.46;100.00
36598;BME280;22607;49.550;11.940;2023-09-19T07:28:12;96654.09;;;21.37;97.35
36598;BME280;22607;49.550;11.940;2023-09-19T07:30:39;96652.75;;;21.17;100.00
36598;BME280;22607;49.550;11.940;2023-09-19T07:33:08;96654.53;;;21.51;95.75
36598;BME280;22607;49.550;11.940;2023-09-19T07:35:38;96660.19;;;21.55;94.16
36598;BME280;22607;49.550;11.940;2023-09-19T07:38:08;96661.19;;;21.48;92.81
36598;BME280;22607;49.550;11.940;2023-09-19T07:40:36;96671.56;;;21.45;94.25
36598;BME280;22607;49.550;11.940;2023-09-19T07:43:03;96679.75;;;20.69;100.00
36598;BME280;22607;49.550;11.940;2023-09-19T07:45:31;96682.38;;;19.94;100.00
36598;BME280;22607;49.550;11.940;2023-09-19T07:47:59;96687.31;;;19.49;100.00
36598;BME280;22607;49.550;11.940;2023-09-19T07:50:50;96672.53;;;19.18;100.00
36598;BME280;22607;49.550;11.940;2023-09-19T07:53:17;96679.75;;;18.98;100.00
36598;BME280;22607;49.550;11.940;2023-09-19T07:55:44;96683.66;;;18.72;100.00
36598;BME280;22607;49.550;11.940;2023-09-19T07:58:14;96687.34;;;19.90;99.26
36598;BME280;22607;49.550;11.940;2023-09-19T08:00:42;96688.31;;;19.84;93.23
36598;BME280;22607;49.550;11.940;2023-09-19T08:03:08;96690.03;;;19.78;95.63
36598;BME280;22607;49.550;11.940;2023-09-19T08:05:44;96685.16;;;20.75;86.12
36598;BME280;22607;49.550;11.940;2023-09-19T08:08:12;96678.31;;;21.30;82.49
36598;BME280;22607;49.550;11.940;2023-09-19T08:10:41;96676.84;;;22.29;78.33
36598;BME280;22607;49.550;11.940;2023-09-19T08:13:10;96698.94;;;21.18;83.41
36598;BME280;22607;49.550;11.940;2023-09-19T08:15:45;96677.88;;;22.00;77.57
36598;BME280;22607;49.550;11.940;2023-09-19T08:18:13;96680.50;;;21.73;77.49
36598;BME280;22607;49.550;11.940;2023-09-19T08:20:40;96690.34;;;20.64;79.62
36598;BME280;22607;49.550;11.940;2023-09-19T08:23:08;96698.59;;;21.88;67.20
36598;BME280;22607;49.550;11.940;2023-09-19T08:25:35;96688.47;;;21.50;69.46
36598;BME280;22607;49.550;11.940;2023-09-19T08:28:02;96685.09;;;21.77;67.12
36598;BME280;22607;49.550;11.940;2023-09-19T08:30:29;96681.34;;;22.23;68.02
36598;BME280;22607;49.550;11.940;2023-09-19T08:32:57;96687.44;;;21.34;69.26
36598;BME280;22607;49.550;11.940;2023-09-19T08:35:26;96692.56;;;21.98;67.32
36598;BME280;22607;49.550;11.940;2023-09-19T08:37:52;96686.00;;;21.66;67.18
36598;BME280;22607;49.550;11.940;2023-09-19T08:40:19;96681.88;;;22.80;68.46
36598;BME280;22607;49.550;11.940;2023-09-19T08:42:49;96695.81;;;22.77;64.41
36598;BME280;22607;49.550;11.940;2023-09-19T08:45:17;96698.28;;;21.84;64.10
36598;BME280;22607;49.550;11.940;2023-09-19T08:47:56;96696.44;;;21.11;69.65
36598;BME280;22607;49.550;11.940;2023-09-19T08:50:28;96708.81;;;21.17;67.97
36598;BME280;22607;49.550;11.940;2023-09-19T08:52:56;96711.72;;;21.33;68.48
36598;BME280;22607;49.550;11.940;2023-09-19T08:55:27;96713.03;;;22.09;64.17
36598;BME280;22607;49.550;11.940;2023-09-19T08:58:04;96716.19;;;23.54;64.80
36598;BME280;22607;49.550;11.940;2023-09-19T09:00:34;96703.22;;;23.36;61.06
36598;BME280;22607;49.550;11.940;2023-09-19T09:03:02;96714.56;;;22.83;58.78
36598;BME280;22607;49.550;11.940;2023-09-19T09:05:29;96719.94;;;23.53;57.36
36598;BME280;22607;49.550;11.940;2023-09-19T09:07:59;96715.78;;;23.83;56.52
36598;BME280;22607;49.550;11.940;2023-09-19T09:10:26;96725.16;;;23.76;55.45
36598;BME280;22607;49.550;11.940;2023-09-19T09:12:53;96728.84;;;23.26;56.03
36598;BME280;22607;49.550;11.940;2023-09-19T09:15:22;96725.69;;;23.02;56.06
36598;BME280;22607;49.550;11.940;2023-09-19T09:17:51;96719.19;;;23.25;56.19
36598;BME280;22607;49.550;11.940;2023-09-19T09:20:20;96724.41;;;23.85;55.32
36598;BME280;22607;49.550;11.940;2023-09-19T09:22:56;96727.28;;;24.32;51.85
36598;BME280;22607;49.550;11.940;2023-09-19T09:25:51;96727.81;;;24.39;53.22
36598;BME280;22607;49.550;11.940;2023-09-19T09:28:25;96741.81;;;24.47;54.37
36598;BME280;22607;49.550;11.940;2023-09-19T09:30:54;96745.84;;;24.55;53.44
36598;BME280;22607;49.550;11.940;2023-09-19T09:33:21;96742.38;;;24.54;52.59
36598;BME280;22607;49.550;11.940;2023-09-19T09:35:54;96740.22;;;24.51;50.20
36598;BME280;22607;49.550;11.940;2023-09-19T09:38:24;96741.09;;;23.98;51.24
36598;BME280;22607;49.550;11.940;2023-09-19T09:40:55;96746.38;;;23.88;53.13
36598;BME280;22607;49.550;11.940;2023-09-19T09:43:38;96735.50;;;24.05;52.27
36598;BME280;22607;49.550;11.940;2023-09-19T09:46:07;96750.63;;;23.78;53.70
36598;BME280;22607;49.550;11.940;2023-09-19T09:49:05;96745.44;;;23.61;52.93
36598;BME280;22607;49.550;11.940;2023-09-19T09:51:50;96739.44;;;23.49;53.34
36598;BME280;22607;49.550;11.940;2023-09-19T09:54:25;96742.03;;;24.24;51.72
36598;BME280;22607;49.550;11.940;2023-09-19T09:57:01;96745.50;;;24.25;50.52
36598;BME280;22607;49.550;11.940;2023-09-19T09:59:51;96759.63;;;23.56;51.95
36598;BME280;22607;49.550;11.940;2023-09-19T10:02:29;96764.03;;;23.78;53.02
36598;BME280;22607;49.550;11.940;2023-09-19T10:04:56;96765.13;;;23.39;53.16
36598;BME280;22607;49.550;11.940;2023-09-19T10:07:41;96753.69;;;23.54;53.56
36598;BME280;22607;49.550;11.940;2023-09-19T10:10:29;96752.78;;;23.05;53.99
36598;BME280;22607;49.550;11.940;2023-09-19T10:12:58;96741.72;;;22.97;54.59
36598;BME280;22607;49.550;11.940;2023-09-19T10:15:32;96750.16;;;23.92;54.24
36598;BME280;22607;49.550;11.940;2023-09-19T10:18:04;96751.13;;;23.70;53.52
36598;BME280;22607;49.550;11.940;2023-09-19T10:20:32;96748.28;;;23.44;54.15
36598;BME280;22607;49.550;11.940;2023-09-19T10:23:07;96744.03;;;23.15;55.00
36598;BME280;22607;49.550;11.940;2023-09-19T10:25:41;96754.69;;;23.38;55.17
36598;BME280;22607;49.550;11.940;2023-09-19T10:28:11;96757.00;;;23.67;54.43
36598;BME280;22607;49.550;11.940;2023-09-19T10:30:43;96744.03;;;23.15;53.72
36598;BME280;22607;49.550;11.940;2023-09-19T10:33:13;96762.00;;;22.87;55.49
36598;BME280;22607;49.550;11.940;2023-09-19T10:35:45;96756.84;;;22.80;54.35
36598;BME280;22607;49.550;11.940;2023-09-19T10:38:13;96745.44;;;23.23;55.65
36598;BME280;22607;49.550;11.940;2023-09-19T10:40:48;96748.19;;;23.01;53.26
36598;BME280;22607;49.550;11.940;2023-09-19T10:43:18;96744.22;;;22.76;54.44
36598;BME280;22607;49.550;11.940;2023-09-19T10:45:45;96748.22;;;22.73;54.08
36598;BME280;22607;49.550;11.940;2023-09-19T10:48:19;96759.59;;;22.86;54.92
36598;BME280;22607;49.550;11.940;2023-09-19T10:50:53;96745.09;;;22.81;55.55
36598;BME280;22607;49.550;11.940;2023-09-19T10:53:27;96745.09;;;22.81;56.79
36598;BME280;22607;49.550;11.940;2023-09-19T10:55:57;96740.91;;;23.29;55.15
36598;BME280;22607;49.550;11.940;2023-09-19T10:58:27;96753.31;;;23.35;56.25
36598;BME280;22607;49.550;11.940;2023-09-19T11:01:00;96752.25;;;23.08;53.71
36598;BME280;22607;49.550;11.940;2023-09-19T11:03:39;96747.19;;;23.40;54.97
36598;BME280;22607;49.550;11.940;2023-09-19T11:09:01;96742.69;;;23.18;54.39
36598;BME280;22607;49.550;11.940;2023-09-19T11:11:51;96734.94;;;23.54;55.92
36598;BME280;22607;49.550;11.940;2023-09-19T11:25:44;96758.34;;;22.99;52.45
36598;BME280;22607;49.550;11.940;2023-09-19T11:30:46;96735.53;;;22.63;52.84
36598;BME280;22607;49.550;11.940;2023-09-19T11:33:30;96748.31;;;22.56;53.07
36598;BME280;22607;49.550;11.940;2023-09-19T11:36:16;96748.28;;;22.78;52.29
36598;BME280;22607;49.550;11.940;2023-09-19T11:44:34;96746.25;;;21.96;54.26
36598;BME280;22607;49.550;11.940;2023-09-19T11:46:53;96741.78;;;22.47;54.24
36598;BME280;22607;49.550;11.940;2023-09-19T11:49:29;96739.53;;;22.61;51.57
36598;BME280;22607;49.550;11.940;2023-09-19T11:52:01;96741.09;;;22.84;52.88
36598;BME280;22607;49.550;11.940;2023-09-19T11:54:32;96739.41;;;23.05;53.60
36598;BME280;22607;49.550;11.940;2023-09-19T11:56:59;96739.41;;;23.05;52.51
36598;BME280;22607;49.550;11.940;2023-09-19T11:59:27;96733.34;;;23.20;52.40
36598;BME280;22607;49.550;11.940;2023-09-19T12:01:58;96713.34;;;22.95;52.52
36598;BME280;22607;49.550;11.940;2023-09-19T12:04:35;96732.59;;;23.25;51.40
36598;BME280;22607;49.550;11.940;2023-09-19T12:09:43;96739.28;;;23.60;51.50
36598;BME280;22607;49.550;11.940;2023-09-19T12:12:11;96725.81;;;22.85;52.17
36598;BME280;22607;49.550;11.940;2023-09-19T12:14:50;96730.22;;;22.68;51.33
36598;BME280;22607;49.550;11.940;2023-09-19T12:17:17;96728.69;;;22.50;52.50
36598;BME280;22607;49.550;11.940;2023-09-19T12:19:52;96731.22;;;22.35;52.60
36598;BME280;22607;49.550;11.940;2023-09-19T12:22:19;96737.03;;;22.04;53.16
36598;BME280;22607;49.550;11.940;2023-09-19T12:24:49;96733.16;;;22.17;53.92
36598;BME280;22607;49.550;11.940;2023-09-19T12:27:17;96737.13;;;21.92;54.17
36598;BME280;22607;49.550;11.940;2023-09-19T12:29:45;96723.75;;;21.92;54.13
36598;BME280;22607;49.550;11.940;2023-09-19T12:32:12;96729.00;;;22.04;54.38
36598;BME280;22607;49.550;11.940;2023-09-19T12:34:40;96727.47;;;22.36;54.83
36598;BME280;22607;49.550;11.940;2023-09-19T12:37:14;96726.88;;;21.84;55.56
36598;BME280;22607;49.550;11.940;2023-09-19T12:40:09;96723.91;;;22.02;55.36
36598;BME280;22607;49.550;11.940;2023-09-19T12:42:45;96727.16;;;22.54;56.18
36598;BME280;22607;49.550;11.940;2023-09-19T12:45:12;96726.19;;;22.66;55.90
36598;BME280;22607;49.550;11.940;2023-09-19T12:47:40;96709.94;;;22.73;53.80
36598;BME280;22607;49.550;11.940;2023-09-19T12:50:14;96720.56;;;22.40;52.45
36598;BME280;22607;49.550;11.940;2023-09-19T12:52:48;96724.88;;;21.96;52.95
36598;BME280;22607;49.550;11.940;2023-09-19T13:00:39;96721.03;;;22.59;51.08
36598;BME280;22607;49.550;11.940;2023-09-19T13:03:11;96723.69;;;22.81;50.81
36598;BME280;22607;49.550;11.940;2023-09-19T13:05:49;96715.00;;;22.69;52.51
36598;BME280;22607;49.550;11.940;2023-09-19T13:08:23;96710.66;;;22.63;53.91
36598;BME280;22607;49.550;11.940;2023-09-19T13:11:09;96716.66;;;22.75;49.77
36598;BME280;22607;49.550;11.940;2023-09-19T13:13:38;96709.34;;;22.43;50.23
36598;BME280;22607;49.550;11.940;2023-09-19T13:16:09;96705.91;;;22.70;51.78
36598;BME280;22607;49.550;11.940;2023-09-19T13:18:46;96709.81;;;22.35;50.34
36598;BME280;22607;49.550;11.940;2023-09-19T13:21:14;96709.22;;;22.55;50.97
36598;BME280;22607;49.550;11.940;2023-09-19T13:23:51;96715.28;;;22.45;50.26
36598;BME280;22607;49.550;11.940;2023-09-19T13:26:18;96718.72;;;22.18;51.11
36598;BME280;22607;49.550;11.940;2023-09-19T13:28:55;96716.25;;;21.89;52.16
36598;BME280;22607;49.550;11.940;2023-09-19T13:31:22;96714.81;;;22.03;52.00
36598;BME280;22607;49.550;11.940;2023-09-19T13:33:50;96706.97;;;22.19;52.17
36598;BME280;22607;49.550;11.940;2023-09-19T13:36:18;96707.84;;;22.02;53.11
36598;BME280;22607;49.550;11.940;2023-09-19T13:38:45;96710.59;;;22.08;53.39
36598;BME280;22607;49.550;11.940;2023-09-19T13:41:15;96704.97;;;22.32;54.07
36598;BME280;22607;49.550;11.940;2023-09-19T13:43:42;96699.50;;;22.21;53.55
36598;BME280;22607;49.550;11.940;2023-09-19T13:46:12;96707.47;;;22.16;54.43
36598;BME280;22607;49.550;11.940;2023-09-19T13:48:42;96703.69;;;22.12;54.38
36598;BME280;22607;49.550;11.940;2023-09-19T13:51:08;96707.88;;;22.30;52.24